EST,Max TemperatureF,Mean TemperatureF,Min TemperatureF,Max Dew PointF,MeanDew PointF,Min DewpointF,Max Humidity, Mean Humidity, Min Humidity, Max Sea Level PressureIn, Mean Sea Level PressureIn, Min Sea Level PressureIn, Max VisibilityMiles, Mean VisibilityMiles, Min VisibilityMiles, Max Wind SpeedMPH, Mean Wind SpeedMPH, Max Gust SpeedMPH,PrecipitationIn, CloudCover, Events, WindDirDegrees
2013-2-1,54,42,28,28,15,5,64,42,19,30.42,30.20,30.01,10,10,10,28,11,38,0.00,1,,296
2013-2-2,51,38,24,33,17,7,76,47,18,30.43,30.29,30.06,10,10,10,13,3,20,0.00,1,,19
2013-2-3,54,44,33,36,32,27,85,62,38,30.05,29.95,29.87,10,10,10,21,5,26,T,4,,293
2013-2-4,51,39,27,31,26,21,85,58,30,30.17,30.10,30.02,10,10,10,10,4,14,0.00,0,,257
2013-2-5,67,54,40,42,35,30,82,55,28,30.06,29.98,29.89,10,10,6,17,6,24,0.00,0,,227
2013-2-6,67,51,34,43,37,33,89,59,29,30.28,30.13,29.99,10,9,1,14,3,20,0.00,0,,12
2013-2-7,62,51,39,52,46,38,89,75,60,30.31,30.17,29.93,10,6,2,24,10,33,0.97,5,Rain,59
2013-2-8,56,52,47,54,46,31,93,82,71,30.00,29.78,29.55,10,7,2,26,13,36,0.88,6,Rain,324
2013-2-9,54,43,31,31,25,20,82,55,28,30.38,30.22,30.02,10,10,10,18,9,24,0.00,0,,316
2013-2-10,55,41,26,44,30,23,92,61,29,30.50,30.42,30.33,10,7,0,10,3,14,0.00,1,Fog,94
2013-2-11,67,59,50,61,58,45,93,85,77,30.30,30.08,29.96,10,8,2,17,9,28,0.16,7,Rain,210
2013-2-12,67,59,51,57,45,31,84,56,28,30.07,30.00,29.95,10,10,9,15,6,22,0.06,1,Rain,269
2013-2-13,59,54,48,54,49,45,96,84,72,29.98,29.76,29.63,10,6,1,20,7,26,0.48,8,Rain,354
2013-2-14,55,47,38,45,38,35,92,71,50,30.10,29.98,29.83,10,10,4,16,4,21,0.00,1,,340
2013-2-15,61,47,32,41,34,30,100,68,36,30.11,30.06,29.98,10,4,0,9,2,13,0.00,1,Fog,66
2013-2-16,52,44,35,39,35,32,92,76,59,29.96,29.83,29.73,10,7,2,18,8,24,0.26,6,Rain-Snow,351
2013-2-17,39,33,27,32,23,10,89,60,30,30.30,30.03,29.86,10,8,2,26,10,37,T,4,Snow,301
2013-2-18,52,36,20,25,17,9,81,50,18,30.47,30.39,30.32,10,10,10,13,3,16,0.00,0,,194
2013-2-19,63,47,31,55,44,25,100,82,64,30.32,30.05,29.82,10,9,2,22,7,29,0.15,4,Rain,217
2013-2-20,57,47,37,42,27,16,86,53,20,30.13,30.06,29.96,10,10,10,14,6,20,0.00,0,,285
2013-2-21,56,44,31,29,23,19,85,55,24,30.27,30.19,30.12,10,10,10,12,6,15,0.00,0,,4
2013-2-22,48,43,37,45,36,26,86,70,53,30.35,30.25,30.12,10,10,10,16,7,21,0.01,7,Rain,56
2013-2-23,51,48,45,48,46,43,93,90,86,30.11,29.94,29.82,10,5,0,10,4,13,0.45,8,Fog-Rain,319
2013-2-24,63,51,39,48,43,37,93,73,52,30.02,29.92,29.78,10,5,0,12,4,15,0.02,4,Fog-Rain,299
2013-2-25,47,42,37,41,32,27,93,71,49,30.21,30.13,30.04,10,9,0,20,9,25,0.00,2,Fog,38
2013-2-26,70,55,39,66,55,31,93,82,70,30.12,29.81,29.61,10,7,2,25,11,36,0.87,7,Rain,131
2013-2-27,64,56,47,58,43,39,86,66,46,29.82,29.75,29.64,10,10,10,18,8,26,0.00,1,,249
2013-2-28,56,48,40,41,35,30,86,64,41,29.85,29.77,29.72,10,10,10,16,7,23,0.00,3,,274